Terminal Aerodrome Forecast
Issued by NWS Greer, SC

Home | Current Version | Previous Version | Text Only | Print | Product List | Glossary On
Versions: 1 2 3 4 5 6 7 8 9 10 11 12 13 14 15 16
000
FTUS42 KGSP 290108 AAA
TAFGSP
TAF AMD
KGSP 290108Z 2901/2924 21005KT 4SM -DZ BR OVC003
     FM290400 35003KT 4SM -RA BR OVC003
     FM290600 02004KT 2SM -RA BR OVC003
     FM291200 04003KT 4SM -RA BR OVC004
     FM291800 03003KT P6SM OVC007=

USA.gov is the U.S. government's official web portal to all federal, state and local government web resources and services.